sensor_id;sensor_type;location;lat;lon;timestamp;P1;durP1;ratioP1;P2;durP2;ratioP2
20495;SDS011;10406;54.132;17.968;2022-10-16T00:01:16;46.13;;;23.77;;
20495;SDS011;10406;54.132;17.968;2022-10-16T00:06:41;47.60;;;23.47;;
20495;SDS011;10406;54.132;17.968;2022-10-16T00:12:02;50.60;;;21.60;;
20495;SDS011;10406;54.132;17.968;2022-10-16T00:17:28;47.80;;;20.30;;
20495;SDS011;10406;54.132;17.968;2022-10-16T00:22:49;43.73;;;22.33;;
20495;SDS011;10406;54.132;17.968;2022-10-16T00:28:10;42.27;;;20.97;;
20495;SDS011;10406;54.132;17.968;2022-10-16T00:33:33;37.30;;;19.63;;
20495;SDS011;10406;54.132;17.968;2022-10-16T00:38:57;37.87;;;19.87;;
20495;SDS011;10406;54.132;17.968;2022-10-16T00:50:08;34.83;;;18.23;;
20495;SDS011;10406;54.132;17.968;2022-10-16T00:55:32;37.43;;;20.20;;
20495;SDS011;10406;54.132;17.968;2022-10-16T01:00:53;39.33;;;21.10;;
20495;SDS011;10406;54.132;17.968;2022-10-16T01:06:23;40.03;;;20.57;;
20495;SDS011;10406;54.132;17.968;2022-10-16T01:11:52;39.20;;;20.70;;
20495;SDS011;10406;54.132;17.968;2022-10-16T01:17:23;35.27;;;17.93;;
20495;SDS011;10406;54.132;17.968;2022-10-16T01:22:54;36.63;;;19.57;;
20495;SDS011;10406;54.132;17.968;2022-10-16T01:28:23;36.70;;;17.80;;
20495;SDS011;10406;54.132;17.968;2022-10-16T01:33:51;33.77;;;17.70;;
20495;SDS011;10406;54.132;17.968;2022-10-16T01:39:21;40.63;;;19.67;;
20495;SDS011;10406;54.132;17.968;2022-10-16T01:44:46;36.77;;;19.10;;
20495;SDS011;10406;54.132;17.968;2022-10-16T01:50:09;37.73;;;18.83;;
20495;SDS011;10406;54.132;17.968;2022-10-16T01:55:33;32.90;;;17.50;;
20495;SDS011;10406;54.132;17.968;2022-10-16T02:00:58;37.40;;;18.87;;
20495;SDS011;10406;54.132;17.968;2022-10-16T02:06:19;37.10;;;18.63;;
20495;SDS011;10406;54.132;17.968;2022-10-16T02:11:43;35.60;;;18.63;;
20495;SDS011;10406;54.132;17.968;2022-10-16T02:17:11;38.47;;;18.30;;
20495;SDS011;10406;54.132;17.968;2022-10-16T02:22:35;34.20;;;17.93;;
20495;SDS011;10406;54.132;17.968;2022-10-16T02:28:01;35.27;;;17.87;;
20495;SDS011;10406;54.132;17.968;2022-10-16T02:33:30;35.63;;;17.53;;
20495;SDS011;10406;54.132;17.968;2022-10-16T02:38:52;32.77;;;18.60;;
20495;SDS011;10406;54.132;17.968;2022-10-16T02:44:14;34.80;;;17.67;;
20495;SDS011;10406;54.132;17.968;2022-10-16T02:49:40;39.33;;;19.90;;
20495;SDS011;10406;54.132;17.968;2022-10-16T02:55:02;37.83;;;21.33;;
20495;SDS011;10406;54.132;17.968;2022-10-16T03:00:23;40.30;;;19.63;;
20495;SDS011;10406;54.132;17.968;2022-10-16T03:05:48;35.63;;;20.60;;
20495;SDS011;10406;54.132;17.968;2022-10-16T03:11:09;35.70;;;20.57;;
20495;SDS011;10406;54.132;17.968;2022-10-16T03:16:32;36.27;;;19.40;;
20495;SDS011;10406;54.132;17.968;2022-10-16T03:21:57;47.33;;;20.87;;
20495;SDS011;10406;54.132;17.968;2022-10-16T03:27:20;41.13;;;19.67;;
20495;SDS011;10406;54.132;17.968;2022-10-16T03:32:41;34.33;;;18.70;;
20495;SDS011;10406;54.132;17.968;2022-10-16T03:38:05;33.87;;;17.73;;
20495;SDS011;10406;54.132;17.968;2022-10-16T03:43:28;36.30;;;18.63;;
20495;SDS011;10406;54.132;17.968;2022-10-16T03:48:52;33.97;;;18.63;;
20495;SDS011;10406;54.132;17.968;2022-10-16T03:54:16;36.27;;;20.03;;
20495;SDS011;10406;54.132;17.968;2022-10-16T03:59:37;38.80;;;19.27;;
20495;SDS011;10406;54.132;17.968;2022-10-16T04:04:58;41.57;;;21.03;;
20495;SDS011;10406;54.132;17.968;2022-10-16T04:10:21;39.63;;;20.03;;
20495;SDS011;10406;54.132;17.968;2022-10-16T04:15:45;37.83;;;21.50;;
20495;SDS011;10406;54.132;17.968;2022-10-16T04:21:08;35.07;;;20.03;;
20495;SDS011;10406;54.132;17.968;2022-10-16T04:26:31;39.00;;;22.07;;
20495;SDS011;10406;54.132;17.968;2022-10-16T04:31:52;41.33;;;22.37;;
20495;SDS011;10406;54.132;17.968;2022-10-16T04:37:13;42.57;;;22.77;;
20495;SDS011;10406;54.132;17.968;2022-10-16T04:42:35;41.13;;;22.07;;
20495;SDS011;10406;54.132;17.968;2022-10-16T04:47:56;43.50;;;23.20;;
20495;SDS011;10406;54.132;17.968;2022-10-16T04:53:23;48.33;;;24.37;;
20495;SDS011;10406;54.132;17.968;2022-10-16T04:58:48;47.10;;;23.63;;
20495;SDS011;10406;54.132;17.968;2022-10-16T05:04:09;48.30;;;24.80;;
20495;SDS011;10406;54.132;17.968;2022-10-16T05:09:30;42.13;;;24.13;;
20495;SDS011;10406;54.132;17.968;2022-10-16T05:14:53;41.90;;;22.40;;
20495;SDS011;10406;54.132;17.968;2022-10-16T05:20:20;40.73;;;22.50;;
20495;SDS011;10406;54.132;17.968;2022-10-16T05:25:43;58.00;;;28.50;;
20495;SDS011;10406;54.132;17.968;2022-10-16T05:31:15;52.73;;;26.90;;
20495;SDS011;10406;54.132;17.968;2022-10-16T05:36:36;43.63;;;25.20;;
20495;SDS011;10406;54.132;17.968;2022-10-16T05:41:57;47.80;;;25.37;;
20495;SDS011;10406;54.132;17.968;2022-10-16T05:47:19;48.70;;;27.37;;
20495;SDS011;10406;54.132;17.968;2022-10-16T05:52:41;49.90;;;26.60;;
20495;SDS011;10406;54.132;17.968;2022-10-16T05:58:03;44.10;;;25.23;;
20495;SDS011;10406;54.132;17.968;2022-10-16T06:03:25;48.17;;;27.13;;
20495;SDS011;10406;54.132;17.968;2022-10-16T06:08:47;42.63;;;24.13;;
20495;SDS011;10406;54.132;17.968;2022-10-16T06:14:09;43.67;;;23.73;;
20495;SDS011;10406;54.132;17.968;2022-10-16T06:19:33;46.10;;;25.00;;
20495;SDS011;10406;54.132;17.968;2022-10-16T06:24:57;52.63;;;28.13;;
20495;SDS011;10406;54.132;17.968;2022-10-16T06:30:23;48.57;;;27.10;;
20495;SDS011;10406;54.132;17.968;2022-10-16T06:35:45;55.50;;;27.67;;
20495;SDS011;10406;54.132;17.968;2022-10-16T06:41:07;69.90;;;42.47;;
20495;SDS011;10406;54.132;17.968;2022-10-16T06:46:30;69.53;;;43.10;;
20495;SDS011;10406;54.132;17.968;2022-10-16T06:51:52;67.60;;;39.10;;
20495;SDS011;10406;54.132;17.968;2022-10-16T06:57:13;59.40;;;34.07;;
20495;SDS011;10406;54.132;17.968;2022-10-16T07:02:49;55.73;;;31.43;;
20495;SDS011;10406;54.132;17.968;2022-10-16T07:08:12;58.70;;;31.27;;
20495;SDS011;10406;54.132;17.968;2022-10-16T07:13:33;57.80;;;30.37;;
20495;SDS011;10406;54.132;17.968;2022-10-16T07:18:54;53.97;;;29.83;;
20495;SDS011;10406;54.132;17.968;2022-10-16T07:24:19;54.73;;;26.53;;
20495;SDS011;10406;54.132;17.968;2022-10-16T07:29:40;55.80;;;24.20;;
20495;SDS011;10406;54.132;17.968;2022-10-16T07:35:00;51.57;;;27.77;;
20495;SDS011;10406;54.132;17.968;2022-10-16T07:40:23;47.00;;;25.20;;
20495;SDS011;10406;54.132;17.968;2022-10-16T07:45:46;68.13;;;35.40;;
20495;SDS011;10406;54.132;17.968;2022-10-16T07:51:08;45.33;;;25.27;;
20495;SDS011;10406;54.132;17.968;2022-10-16T07:56:36;44.63;;;23.80;;
20495;SDS011;10406;54.132;17.968;2022-10-16T08:02:04;44.87;;;22.40;;
20495;SDS011;10406;54.132;17.968;2022-10-16T08:07:25;41.53;;;24.20;;
20495;SDS011;10406;54.132;17.968;2022-10-16T08:12:51;45.53;;;24.63;;
20495;SDS011;10406;54.132;17.968;2022-10-16T08:18:24;43.93;;;21.97;;
20495;SDS011;10406;54.132;17.968;2022-10-16T08:23:45;41.80;;;22.60;;
20495;SDS011;10406;54.132;17.968;2022-10-16T08:29:07;41.67;;;23.07;;
20495;SDS011;10406;54.132;17.968;2022-10-16T08:34:28;45.60;;;25.97;;
20495;SDS011;10406;54.132;17.968;2022-10-16T08:39:54;47.00;;;22.23;;
20495;SDS011;10406;54.132;17.968;2022-10-16T08:45:23;39.70;;;23.63;;
20495;SDS011;10406;54.132;17.968;2022-10-16T08:51:00;43.47;;;21.30;;
20495;SDS011;10406;54.132;17.968;2022-10-16T08:56:22;36.07;;;20.17;;
20495;SDS011;10406;54.132;17.968;2022-10-16T09:01:47;37.53;;;19.63;;
20495;SDS011;10406;54.132;17.968;2022-10-16T09:07:12;38.57;;;22.17;;
20495;SDS011;10406;54.132;17.968;2022-10-16T09:12:46;39.60;;;23.17;;
20495;SDS011;10406;54.132;17.968;2022-10-16T09:18:20;37.70;;;21.87;;
20495;SDS011;10406;54.132;17.968;2022-10-16T09:23:46;46.67;;;23.80;;
20495;SDS011;10406;54.132;17.968;2022-10-16T09:35:01;41.17;;;22.47;;
20495;SDS011;10406;54.132;17.968;2022-10-16T09:40:26;40.07;;;20.40;;
20495;SDS011;10406;54.132;17.968;2022-10-16T09:45:59;41.77;;;22.00;;
20495;SDS011;10406;54.132;17.968;2022-10-16T09:51:23;32.93;;;19.03;;
20495;SDS011;10406;54.132;17.968;2022-10-16T09:56:45;33.00;;;16.17;;
20495;SDS011;10406;54.132;17.968;2022-10-16T10:02:11;34.03;;;18.43;;
20495;SDS011;10406;54.132;17.968;2022-10-16T10:07:38;31.77;;;17.57;;
20495;SDS011;10406;54.132;17.968;2022-10-16T10:13:16;31.60;;;16.13;;
20495;SDS011;10406;54.132;17.968;2022-10-16T10:18:44;31.00;;;14.97;;
20495;SDS011;10406;54.132;17.968;2022-10-16T10:24:10;28.55;;;15.25;;
20495;SDS011;10406;54.132;17.968;2022-10-16T10:29:36;26.33;;;12.57;;
20495;SDS011;10406;54.132;17.968;2022-10-16T10:35:11;30.70;;;17.48;;
20495;SDS011;10406;54.132;17.968;2022-10-16T10:40:43;27.27;;;12.70;;
20495;SDS011;10406;54.132;17.968;2022-10-16T10:46:14;26.30;;;12.52;;
20495;SDS011;10406;54.132;17.968;2022-10-16T10:51:42;31.73;;;13.18;;
20495;SDS011;10406;54.132;17.968;2022-10-16T10:57:13;31.40;;;12.52;;
20495;SDS011;10406;54.132;17.968;2022-10-16T11:02:42;33.25;;;12.15;;
20495;SDS011;10406;54.132;17.968;2022-10-16T11:08:13;36.20;;;19.10;;
20495;SDS011;10406;54.132;17.968;2022-10-16T11:13:43;88.10;;;43.33;;
20495;SDS011;10406;54.132;17.968;2022-10-16T11:19:19;32.53;;;15.00;;
20495;SDS011;10406;54.132;17.968;2022-10-16T11:24:49;23.20;;;12.30;;
20495;SDS011;10406;54.132;17.968;2022-10-16T11:30:22;28.45;;;13.32;;
20495;SDS011;10406;54.132;17.968;2022-10-16T11:35:46;27.77;;;13.52;;
20495;SDS011;10406;54.132;17.968;2022-10-16T11:41:27;20.17;;;9.80;;
20495;SDS011;10406;54.132;17.968;2022-10-16T11:46:57;25.33;;;11.88;;
20495;SDS011;10406;54.132;17.968;2022-10-16T11:52:39;25.40;;;10.27;;
20495;SDS011;10406;54.132;17.968;2022-10-16T11:58:05;23.48;;;10.73;;
20495;SDS011;10406;54.132;17.968;2022-10-16T12:03:35;23.23;;;11.13;;
20495;SDS011;10406;54.132;17.968;2022-10-16T12:09:02;25.70;;;10.93;;
20495;SDS011;10406;54.132;17.968;2022-10-16T12:14:35;30.13;;;13.38;;
20495;SDS011;10406;54.132;17.968;2022-10-16T12:20:18;29.48;;;14.30;;
20495;SDS011;10406;54.132;17.968;2022-10-16T12:25:53;38.63;;;15.97;;
20495;SDS011;10406;54.132;17.968;2022-10-16T12:31:17;31.42;;;15.68;;
20495;SDS011;10406;54.132;17.968;2022-10-16T12:36:47;28.23;;;14.52;;
20495;SDS011;10406;54.132;17.968;2022-10-16T12:42:32;26.48;;;12.18;;
20495;SDS011;10406;54.132;17.968;2022-10-16T12:48:50;22.60;;;11.07;;
20495;SDS011;10406;54.132;17.968;2022-10-16T13:19:56;21.52;;;10.35;;
20495;SDS011;10406;54.132;17.968;2022-10-16T13:26:08;25.80;;;12.23;;
20495;SDS011;10406;54.132;17.968;2022-10-16T13:37:43;33.20;;;12.23;;
20495;SDS011;10406;54.132;17.968;2022-10-16T13:43:07;20.30;;;10.00;;
20495;SDS011;10406;54.132;17.968;2022-10-16T13:48:35;24.20;;;10.52;;
20495;SDS011;10406;54.132;17.968;2022-10-16T13:54:02;19.88;;;10.20;;
20495;SDS011;10406;54.132;17.968;2022-10-16T13:59:24;19.55;;;9.05;;
20495;SDS011;10406;54.132;17.968;2022-10-16T14:04:51;25.73;;;10.40;;
20495;SDS011;10406;54.132;17.968;2022-10-16T14:10:40;23.88;;;11.43;;
20495;SDS011;10406;54.132;17.968;2022-10-16T14:16:05;22.45;;;11.73;;
20495;SDS011;10406;54.132;17.968;2022-10-16T14:21:43;26.27;;;13.02;;
20495;SDS011;10406;54.132;17.968;2022-10-16T14:32:55;23.85;;;11.45;;
20495;SDS011;10406;54.132;17.968;2022-10-16T14:38:18;25.37;;;11.60;;
20495;SDS011;10406;54.132;17.968;2022-10-16T14:43:44;37.13;;;14.47;;
20495;SDS011;10406;54.132;17.968;2022-10-16T14:49:13;44.78;;;23.77;;
20495;SDS011;10406;54.132;17.968;2022-10-16T14:54:49;29.20;;;14.30;;
20495;SDS011;10406;54.132;17.968;2022-10-16T15:00:16;26.80;;;14.53;;
20495;SDS011;10406;54.132;17.968;2022-10-16T15:05:45;24.60;;;13.13;;
20495;SDS011;10406;54.132;17.968;2022-10-16T15:11:07;31.40;;;17.40;;
20495;SDS011;10406;54.132;17.968;2022-10-16T15:16:40;31.27;;;18.33;;
20495;SDS011;10406;54.132;17.968;2022-10-16T15:22:02;34.27;;;18.90;;
20495;SDS011;10406;54.132;17.968;2022-10-16T15:27:23;30.97;;;16.80;;
20495;SDS011;10406;54.132;17.968;2022-10-16T15:32:45;37.50;;;19.50;;
20495;SDS011;10406;54.132;17.968;2022-10-16T15:38:08;33.33;;;16.57;;
20495;SDS011;10406;54.132;17.968;2022-10-16T15:43:32;37.33;;;17.53;;
20495;SDS011;10406;54.132;17.968;2022-10-16T15:48:55;40.20;;;20.87;;
20495;SDS011;10406;54.132;17.968;2022-10-16T15:54:18;40.23;;;22.83;;
20495;SDS011;10406;54.132;17.968;2022-10-16T15:59:40;38.67;;;21.23;;
20495;SDS011;10406;54.132;17.968;2022-10-16T16:05:04;51.33;;;29.90;;
20495;SDS011;10406;54.132;17.968;2022-10-16T16:10:27;62.77;;;38.47;;
20495;SDS011;10406;54.132;17.968;2022-10-16T16:16:05;62.70;;;36.47;;
20495;SDS011;10406;54.132;17.968;2022-10-16T16:21:33;61.10;;;35.00;;
20495;SDS011;10406;54.132;17.968;2022-10-16T16:26:56;55.53;;;36.30;;
20495;SDS011;10406;54.132;17.968;2022-10-16T16:32:17;71.40;;;39.60;;
20495;SDS011;10406;54.132;17.968;2022-10-16T16:43:50;68.47;;;39.43;;
20495;SDS011;10406;54.132;17.968;2022-10-16T16:49:12;68.73;;;39.03;;
20495;SDS011;10406;54.132;17.968;2022-10-16T16:54:43;87.10;;;49.30;;
20495;SDS011;10406;54.132;17.968;2022-10-16T17:00:14;80.87;;;46.23;;
20495;SDS011;10406;54.132;17.968;2022-10-16T17:05:37;68.30;;;37.37;;
20495;SDS011;10406;54.132;17.968;2022-10-16T17:11:13;59.57;;;30.20;;
20495;SDS011;10406;54.132;17.968;2022-10-16T17:16:44;53.00;;;27.23;;
20495;SDS011;10406;54.132;17.968;2022-10-16T17:22:07;56.63;;;29.43;;
20495;SDS011;10406;54.132;17.968;2022-10-16T17:27:34;52.17;;;26.57;;
20495;SDS011;10406;54.132;17.968;2022-10-16T17:33:08;41.77;;;23.67;;
20495;SDS011;10406;54.132;17.968;2022-10-16T17:38:30;42.63;;;22.80;;
20495;SDS011;10406;54.132;17.968;2022-10-16T17:43:59;49.77;;;24.90;;
20495;SDS011;10406;54.132;17.968;2022-10-16T17:49:29;43.20;;;24.03;;
20495;SDS011;10406;54.132;17.968;2022-10-16T17:54:50;43.17;;;22.47;;
20495;SDS011;10406;54.132;17.968;2022-10-16T18:00:13;37.27;;;19.37;;
20495;SDS011;10406;54.132;17.968;2022-10-16T18:05:36;34.93;;;19.30;;
20495;SDS011;10406;54.132;17.968;2022-10-16T18:10:58;30.37;;;18.27;;
20495;SDS011;10406;54.132;17.968;2022-10-16T18:16:20;35.27;;;19.43;;
20495;SDS011;10406;54.132;17.968;2022-10-16T18:21:43;38.87;;;21.80;;
20495;SDS011;10406;54.132;17.968;2022-10-16T18:27:07;40.17;;;24.50;;
20495;SDS011;10406;54.132;17.968;2022-10-16T18:32:29;44.53;;;26.47;;
20495;SDS011;10406;54.132;17.968;2022-10-16T18:37:50;47.57;;;29.10;;
20495;SDS011;10406;54.132;17.968;2022-10-16T18:43:14;52.87;;;30.73;;
20495;SDS011;10406;54.132;17.968;2022-10-16T18:48:37;51.63;;;28.27;;
20495;SDS011;10406;54.132;17.968;2022-10-16T18:54:06;43.87;;;23.57;;
20495;SDS011;10406;54.132;17.968;2022-10-16T18:59:28;34.63;;;18.47;;
20495;SDS011;10406;54.132;17.968;2022-10-16T19:04:55;43.50;;;19.63;;
20495;SDS011;10406;54.132;17.968;2022-10-16T19:10:18;40.17;;;17.33;;
20495;SDS011;10406;54.132;17.968;2022-10-16T19:27:50;35.13;;;18.90;;
20495;SDS011;10406;54.132;17.968;2022-10-16T19:33:12;37.43;;;19.43;;
20495;SDS011;10406;54.132;17.968;2022-10-16T19:38:40;34.43;;;15.53;;
20495;SDS011;10406;54.132;17.968;2022-10-16T19:44:30;31.67;;;14.87;;
20495;SDS011;10406;54.132;17.968;2022-10-16T19:50:09;35.27;;;18.13;;
20495;SDS011;10406;54.132;17.968;2022-10-16T19:55:37;33.00;;;17.73;;
20495;SDS011;10406;54.132;17.968;2022-10-16T20:01:12;44.00;;;19.63;;
20495;SDS011;10406;54.132;17.968;2022-10-16T20:06:41;38.03;;;17.23;;
20495;SDS011;10406;54.132;17.968;2022-10-16T20:12:18;34.23;;;14.73;;
20495;SDS011;10406;54.132;17.968;2022-10-16T20:24:11;31.50;;;16.00;;
20495;SDS011;10406;54.132;17.968;2022-10-16T20:29:36;30.50;;;14.63;;
20495;SDS011;10406;54.132;17.968;2022-10-16T20:35:03;31.43;;;15.83;;
20495;SDS011;10406;54.132;17.968;2022-10-16T20:40:38;37.83;;;20.73;;
20495;SDS011;10406;54.132;17.968;2022-10-16T21:00:50;35.13;;;16.33;;
20495;SDS011;10406;54.132;17.968;2022-10-16T21:06:37;38.83;;;17.03;;
20495;SDS011;10406;54.132;17.968;2022-10-16T21:12:12;41.90;;;18.33;;
20495;SDS011;10406;54.132;17.968;2022-10-16T21:17:39;37.03;;;17.43;;
20495;SDS011;10406;54.132;17.968;2022-10-16T21:23:01;27.10;;;12.87;;
20495;SDS011;10406;54.132;17.968;2022-10-16T21:28:22;21.73;;;11.50;;
20495;SDS011;10406;54.132;17.968;2022-10-16T21:33:45;22.33;;;10.23;;
20495;SDS011;10406;54.132;17.968;2022-10-16T21:39:10;19.90;;;9.67;;
20495;SDS011;10406;54.132;17.968;2022-10-16T21:44:32;15.03;;;8.63;;
20495;SDS011;10406;54.132;17.968;2022-10-16T21:49:56;18.00;;;8.97;;
20495;SDS011;10406;54.132;17.968;2022-10-16T21:55:22;16.93;;;8.63;;
20495;SDS011;10406;54.132;17.968;2022-10-16T22:00:46;13.60;;;8.00;;
20495;SDS011;10406;54.132;17.968;2022-10-16T22:06:08;18.83;;;8.37;;
20495;SDS011;10406;54.132;17.968;2022-10-16T22:11:31;12.60;;;7.50;;
20495;SDS011;10406;54.132;17.968;2022-10-16T22:23:26;15.13;;;8.27;;
20495;SDS011;10406;54.132;17.968;2022-10-16T22:28:54;14.17;;;8.13;;
20495;SDS011;10406;54.132;17.968;2022-10-16T22:34:15;15.67;;;8.43;;
20495;SDS011;10406;54.132;17.968;2022-10-16T22:39:38;33.03;;;14.90;;
20495;SDS011;10406;54.132;17.968;2022-10-16T22:44:59;17.63;;;8.23;;
20495;SDS011;10406;54.132;17.968;2022-10-16T22:50:20;14.27;;;7.20;;
20495;SDS011;10406;54.132;17.968;2022-10-16T22:55:42;15.53;;;7.63;;
20495;SDS011;10406;54.132;17.968;2022-10-16T23:01:08;16.43;;;7.90;;
20495;SDS011;10406;54.132;17.968;2022-10-16T23:06:30;15.90;;;8.17;;
20495;SDS011;10406;54.132;17.968;2022-10-16T23:11:53;21.50;;;9.33;;
20495;SDS011;10406;54.132;17.968;2022-10-16T23:17:16;14.70;;;8.30;;
20495;SDS011;10406;54.132;17.968;2022-10-16T23:22:37;20.43;;;9.43;;
20495;SDS011;10406;54.132;17.968;2022-10-16T23:27:59;17.50;;;8.00;;
20495;SDS011;10406;54.132;17.968;2022-10-16T23:33:21;16.97;;;9.23;;
20495;SDS011;10406;54.132;17.968;2022-10-16T23:38:42;19.27;;;10.40;;
20495;SDS011;10406;54.132;17.968;2022-10-16T23:44:04;17.27;;;8.93;;
20495;SDS011;10406;54.132;17.968;2022-10-16T23:49:26;16.93;;;9.63;;
20495;SDS011;10406;54.132;17.968;2022-10-16T23:54:46;12.87;;;7.80;;
